Elmira, Canada
Current Conditions -  °F | °C
As of 4:00 AM on Friday 31 Oct 2014 (Local Time) from CYKF Reporting Station
Light Rain Light Rain  
Wind Chill: 36°   Ceiling: 4500
Heat Index: 39°   Visibility: 9mi
Dew Point: 37°   Wind: 5mph
Humidity: 93%   Direction: 130°SE
Pressure: 29.95"   Gusts: NA
Location:  43.6°N, 80.55°W
Report Text: CYKF 310800Z AUTO 13004KT 9SM -RA FEW026 OVC045 04/03 A2995 RMK SLP150
Loading
Personal Weather Stations






























Interactive Weather Map
Tropical Storm Tracking
New forecast layout! Learn more

10-Day Weather Forecast

Advertisements
Track Severe Weather on mobile